sensor_id;sensor_type;location;lat;lon;timestamp;P1;durP1;ratioP1;P2;durP2;ratioP2
48861;SDS011;34681;49.188;-0.374;2023-04-24T00:01:14;4.43;;;2.73;;
48861;SDS011;34681;49.188;-0.374;2023-04-24T00:03:40;8.90;;;3.30;;
48861;SDS011;34681;49.188;-0.374;2023-04-24T00:06:06;5.93;;;2.47;;
48861;SDS011;34681;49.188;-0.374;2023-04-24T00:08:33;5.37;;;2.50;;
48861;SDS011;34681;49.188;-0.374;2023-04-24T00:11:01;5.67;;;2.40;;
48861;SDS011;34681;49.188;-0.374;2023-04-24T00:13:27;5.33;;;2.37;;
48861;SDS011;34681;49.188;-0.374;2023-04-24T00:15:53;5.83;;;2.10;;
48861;SDS011;34681;49.188;-0.374;2023-04-24T00:18:19;4.00;;;2.30;;
48861;SDS011;34681;49.188;-0.374;2023-04-24T00:20:44;10.30;;;3.97;;
48861;SDS011;34681;49.188;-0.374;2023-04-24T00:23:11;7.20;;;2.50;;
48861;SDS011;34681;49.188;-0.374;2023-04-24T00:25:36;7.63;;;3.00;;
48861;SDS011;34681;49.188;-0.374;2023-04-24T00:28:02;3.80;;;2.20;;
48861;SDS011;34681;49.188;-0.374;2023-04-24T00:30:27;6.40;;;3.07;;
48861;SDS011;34681;49.188;-0.374;2023-04-24T00:32:53;5.63;;;2.20;;
48861;SDS011;34681;49.188;-0.374;2023-04-24T00:35:18;8.93;;;2.47;;
48861;SDS011;34681;49.188;-0.374;2023-04-24T00:37:45;3.07;;;2.40;;
48861;SDS011;34681;49.188;-0.374;2023-04-24T00:40:10;7.53;;;3.07;;
48861;SDS011;34681;49.188;-0.374;2023-04-24T00:42:36;5.20;;;2.40;;
48861;SDS011;34681;49.188;-0.374;2023-04-24T00:45:01;4.70;;;2.67;;
48861;SDS011;34681;49.188;-0.374;2023-04-24T00:47:28;7.13;;;4.40;;
48861;SDS011;34681;49.188;-0.374;2023-04-24T00:49:53;10.33;;;3.90;;
48861;SDS011;34681;49.188;-0.374;2023-04-24T00:52:20;5.60;;;2.80;;
48861;SDS011;34681;49.188;-0.374;2023-04-24T00:54:45;2.57;;;2.17;;
48861;SDS011;34681;49.188;-0.374;2023-04-24T00:57:12;4.63;;;2.70;;
48861;SDS011;34681;49.188;-0.374;2023-04-24T00:59:39;3.30;;;2.60;;
48861;SDS011;34681;49.188;-0.374;2023-04-24T01:02:06;6.50;;;2.50;;
48861;SDS011;34681;49.188;-0.374;2023-04-24T01:04:33;3.67;;;2.47;;
48861;SDS011;34681;49.188;-0.374;2023-04-24T01:06:59;5.73;;;2.80;;
48861;SDS011;34681;49.188;-0.374;2023-04-24T01:09:25;6.63;;;2.73;;
48861;SDS011;34681;49.188;-0.374;2023-04-24T01:11:50;4.87;;;2.37;;
48861;SDS011;34681;49.188;-0.374;2023-04-24T01:14:16;7.40;;;2.43;;
48861;SDS011;34681;49.188;-0.374;2023-04-24T01:16:41;6.63;;;3.07;;
48861;SDS011;34681;49.188;-0.374;2023-04-24T01:19:07;5.17;;;2.30;;
48861;SDS011;34681;49.188;-0.374;2023-04-24T01:21:34;4.37;;;2.70;;
48861;SDS011;34681;49.188;-0.374;2023-04-24T01:24:01;5.03;;;3.50;;
48861;SDS011;34681;49.188;-0.374;2023-04-24T01:26:27;5.70;;;2.80;;
48861;SDS011;34681;49.188;-0.374;2023-04-24T01:28:53;4.60;;;2.60;;
48861;SDS011;34681;49.188;-0.374;2023-04-24T01:31:18;6.33;;;3.10;;
48861;SDS011;34681;49.188;-0.374;2023-04-24T01:33:44;2.73;;;2.23;;
48861;SDS011;34681;49.188;-0.374;2023-04-24T01:36:10;6.17;;;3.10;;
48861;SDS011;34681;49.188;-0.374;2023-04-24T01:38:36;3.33;;;2.90;;
48861;SDS011;34681;49.188;-0.374;2023-04-24T01:41:02;8.77;;;4.30;;
48861;SDS011;34681;49.188;-0.374;2023-04-24T01:43:27;11.77;;;3.90;;
48861;SDS011;34681;49.188;-0.374;2023-04-24T01:45:53;6.80;;;3.80;;
48861;SDS011;34681;49.188;-0.374;2023-04-24T01:48:19;8.10;;;4.03;;
48861;SDS011;34681;49.188;-0.374;2023-04-24T01:50:44;5.13;;;3.83;;
48861;SDS011;34681;49.188;-0.374;2023-04-24T01:53:10;7.20;;;3.83;;
48861;SDS011;34681;49.188;-0.374;2023-04-24T01:55:36;6.47;;;4.03;;
48861;SDS011;34681;49.188;-0.374;2023-04-24T01:58:01;11.40;;;5.17;;
48861;SDS011;34681;49.188;-0.374;2023-04-24T02:00:27;4.10;;;3.80;;
48861;SDS011;34681;49.188;-0.374;2023-04-24T02:02:52;4.80;;;4.30;;
48861;SDS011;34681;49.188;-0.374;2023-04-24T02:05:18;5.33;;;3.60;;
48861;SDS011;34681;49.188;-0.374;2023-04-24T02:07:43;3.93;;;3.63;;
48861;SDS011;34681;49.188;-0.374;2023-04-24T02:10:09;7.40;;;4.17;;
48861;SDS011;34681;49.188;-0.374;2023-04-24T02:12:35;11.10;;;4.40;;
48861;SDS011;34681;49.188;-0.374;2023-04-24T02:15:00;6.60;;;4.10;;
48861;SDS011;34681;49.188;-0.374;2023-04-24T02:17:25;6.87;;;5.47;;
48861;SDS011;34681;49.188;-0.374;2023-04-24T02:19:51;9.10;;;5.30;;
48861;SDS011;34681;49.188;-0.374;2023-04-24T02:22:16;6.33;;;4.87;;
48861;SDS011;34681;49.188;-0.374;2023-04-24T02:24:42;7.23;;;4.83;;
48861;SDS011;34681;49.188;-0.374;2023-04-24T02:27:07;11.57;;;6.53;;
48861;SDS011;34681;49.188;-0.374;2023-04-24T02:29:33;6.80;;;5.30;;
48861;SDS011;34681;49.188;-0.374;2023-04-24T02:31:58;10.20;;;6.10;;
48861;SDS011;34681;49.188;-0.374;2023-04-24T02:34:24;5.90;;;4.93;;
48861;SDS011;34681;49.188;-0.374;2023-04-24T02:36:49;5.50;;;5.00;;
48861;SDS011;34681;49.188;-0.374;2023-04-24T02:39:15;8.40;;;5.63;;
48861;SDS011;34681;49.188;-0.374;2023-04-24T02:41:43;17.57;;;6.10;;
48861;SDS011;34681;49.188;-0.374;2023-04-24T02:44:09;8.80;;;5.90;;
48861;SDS011;34681;49.188;-0.374;2023-04-24T02:46:34;8.37;;;6.53;;
48861;SDS011;34681;49.188;-0.374;2023-04-24T02:49:00;7.23;;;5.97;;
48861;SDS011;34681;49.188;-0.374;2023-04-24T02:51:25;8.40;;;7.60;;
48861;SDS011;34681;49.188;-0.374;2023-04-24T02:53:51;8.30;;;6.67;;
48861;SDS011;34681;49.188;-0.374;2023-04-24T02:56:17;7.47;;;6.77;;
48861;SDS011;34681;49.188;-0.374;2023-04-24T02:58:42;11.17;;;7.00;;
48861;SDS011;34681;49.188;-0.374;2023-04-24T03:01:08;8.40;;;7.60;;
48861;SDS011;34681;49.188;-0.374;2023-04-24T03:03:34;8.23;;;7.43;;
48861;SDS011;34681;49.188;-0.374;2023-04-24T03:06:00;12.83;;;8.10;;
48861;SDS011;34681;49.188;-0.374;2023-04-24T03:08:25;8.57;;;7.40;;
48861;SDS011;34681;49.188;-0.374;2023-04-24T03:10:51;11.40;;;8.17;;
48861;SDS011;34681;49.188;-0.374;2023-04-24T03:13:16;8.67;;;6.87;;
48861;SDS011;34681;49.188;-0.374;2023-04-24T03:15:41;13.47;;;8.93;;
48861;SDS011;34681;49.188;-0.374;2023-04-24T03:18:07;10.27;;;7.40;;
48861;SDS011;34681;49.188;-0.374;2023-04-24T03:20:32;12.10;;;6.97;;
48861;SDS011;34681;49.188;-0.374;2023-04-24T03:22:57;10.53;;;8.17;;
48861;SDS011;34681;49.188;-0.374;2023-04-24T03:25:23;12.87;;;8.07;;
48861;SDS011;34681;49.188;-0.374;2023-04-24T03:27:48;10.23;;;9.03;;
48861;SDS011;34681;49.188;-0.374;2023-04-24T03:30:13;11.60;;;8.60;;
48861;SDS011;34681;49.188;-0.374;2023-04-24T03:32:39;13.53;;;9.23;;
48861;SDS011;34681;49.188;-0.374;2023-04-24T03:35:05;13.43;;;8.57;;
48861;SDS011;34681;49.188;-0.374;2023-04-24T03:37:32;10.60;;;9.03;;
48861;SDS011;34681;49.188;-0.374;2023-04-24T03:39:57;9.83;;;7.53;;
48861;SDS011;34681;49.188;-0.374;2023-04-24T03:42:23;8.37;;;7.50;;
48861;SDS011;34681;49.188;-0.374;2023-04-24T03:44:48;9.20;;;8.13;;
48861;SDS011;34681;49.188;-0.374;2023-04-24T03:47:13;8.90;;;8.20;;
48861;SDS011;34681;49.188;-0.374;2023-04-24T03:49:39;8.27;;;7.47;;
48861;SDS011;34681;49.188;-0.374;2023-04-24T03:52:04;8.17;;;7.37;;
48861;SDS011;34681;49.188;-0.374;2023-04-24T03:54:29;8.50;;;7.60;;
48861;SDS011;34681;49.188;-0.374;2023-04-24T03:56:55;7.33;;;6.73;;
48861;SDS011;34681;49.188;-0.374;2023-04-24T03:59:20;9.30;;;8.30;;
48861;SDS011;34681;49.188;-0.374;2023-04-24T04:01:46;9.63;;;7.90;;
48861;SDS011;34681;49.188;-0.374;2023-04-24T04:04:11;8.37;;;7.53;;
48861;SDS011;34681;49.188;-0.374;2023-04-24T04:06:36;9.33;;;7.30;;
48861;SDS011;34681;49.188;-0.374;2023-04-24T04:09:02;10.17;;;8.47;;
48861;SDS011;34681;49.188;-0.374;2023-04-24T04:11:28;11.63;;;7.93;;
48861;SDS011;34681;49.188;-0.374;2023-04-24T04:13:54;8.23;;;7.30;;
48861;SDS011;34681;49.188;-0.374;2023-04-24T04:16:19;13.97;;;8.30;;
48861;SDS011;34681;49.188;-0.374;2023-04-24T04:18:45;10.30;;;7.70;;
48861;SDS011;34681;49.188;-0.374;2023-04-24T04:21:10;9.90;;;8.10;;
48861;SDS011;34681;49.188;-0.374;2023-04-24T04:23:36;12.20;;;8.60;;
48861;SDS011;34681;49.188;-0.374;2023-04-24T04:26:02;11.60;;;9.60;;
48861;SDS011;34681;49.188;-0.374;2023-04-24T04:28:29;9.33;;;8.20;;
48861;SDS011;34681;49.188;-0.374;2023-04-24T04:30:56;11.60;;;8.40;;
48861;SDS011;34681;49.188;-0.374;2023-04-24T04:33:22;8.37;;;7.47;;
48861;SDS011;34681;49.188;-0.374;2023-04-24T04:35:48;10.40;;;9.40;;
48861;SDS011;34681;49.188;-0.374;2023-04-24T04:38:14;8.67;;;7.83;;
48861;SDS011;34681;49.188;-0.374;2023-04-24T04:40:41;10.30;;;9.30;;
48861;SDS011;34681;49.188;-0.374;2023-04-24T04:43:07;15.30;;;10.10;;
48861;SDS011;34681;49.188;-0.374;2023-04-24T04:45:33;11.47;;;8.70;;
48861;SDS011;34681;49.188;-0.374;2023-04-24T04:47:59;13.37;;;8.50;;
48861;SDS011;34681;49.188;-0.374;2023-04-24T04:50:28;15.60;;;9.20;;
48861;SDS011;34681;49.188;-0.374;2023-04-24T04:52:54;10.17;;;7.80;;
48861;SDS011;34681;49.188;-0.374;2023-04-24T04:55:19;10.73;;;8.37;;
48861;SDS011;34681;49.188;-0.374;2023-04-24T04:57:45;15.20;;;8.87;;
48861;SDS011;34681;49.188;-0.374;2023-04-24T05:00:11;14.47;;;9.77;;
48861;SDS011;34681;49.188;-0.374;2023-04-24T05:02:37;10.13;;;8.43;;
48861;SDS011;34681;49.188;-0.374;2023-04-24T05:05:03;16.47;;;11.20;;
48861;SDS011;34681;49.188;-0.374;2023-04-24T05:07:28;10.33;;;7.90;;
48861;SDS011;34681;49.188;-0.374;2023-04-24T05:09:53;13.10;;;8.87;;
48861;SDS011;34681;49.188;-0.374;2023-04-24T05:12:19;10.90;;;9.80;;
48861;SDS011;34681;49.188;-0.374;2023-04-24T05:14:44;10.03;;;8.17;;
48861;SDS011;34681;49.188;-0.374;2023-04-24T05:17:09;8.80;;;8.00;;
48861;SDS011;34681;49.188;-0.374;2023-04-24T05:19:35;15.67;;;9.33;;
48861;SDS011;34681;49.188;-0.374;2023-04-24T05:22:02;16.87;;;9.30;;
48861;SDS011;34681;49.188;-0.374;2023-04-24T05:24:29;16.23;;;8.13;;
48861;SDS011;34681;49.188;-0.374;2023-04-24T05:26:54;13.93;;;9.00;;
48861;SDS011;34681;49.188;-0.374;2023-04-24T05:29:20;8.47;;;7.20;;
48861;SDS011;34681;49.188;-0.374;2023-04-24T05:31:46;9.83;;;8.43;;
48861;SDS011;34681;49.188;-0.374;2023-04-24T05:34:11;14.30;;;8.30;;
48861;SDS011;34681;49.188;-0.374;2023-04-24T05:36:37;10.83;;;9.40;;
48861;SDS011;34681;49.188;-0.374;2023-04-24T05:39:02;12.53;;;8.20;;
48861;SDS011;34681;49.188;-0.374;2023-04-24T05:41:29;9.93;;;8.90;;
48861;SDS011;34681;49.188;-0.374;2023-04-24T05:43:55;12.80;;;8.80;;
48861;SDS011;34681;49.188;-0.374;2023-04-24T05:46:20;10.33;;;8.70;;
48861;SDS011;34681;49.188;-0.374;2023-04-24T05:48:45;11.80;;;9.10;;
48861;SDS011;34681;49.188;-0.374;2023-04-24T05:51:11;15.10;;;8.03;;
48861;SDS011;34681;49.188;-0.374;2023-04-24T05:53:36;14.00;;;7.93;;
48861;SDS011;34681;49.188;-0.374;2023-04-24T05:56:01;11.30;;;7.70;;
48861;SDS011;34681;49.188;-0.374;2023-04-24T05:58:27;11.00;;;7.50;;
48861;SDS011;34681;49.188;-0.374;2023-04-24T06:00:52;8.10;;;7.47;;
48861;SDS011;34681;49.188;-0.374;2023-04-24T06:03:18;9.53;;;6.37;;
48861;SDS011;34681;49.188;-0.374;2023-04-24T06:05:43;6.80;;;6.30;;
48861;SDS011;34681;49.188;-0.374;2023-04-24T06:08:09;7.40;;;6.20;;
48861;SDS011;34681;49.188;-0.374;2023-04-24T06:10:35;5.67;;;5.27;;
48861;SDS011;34681;49.188;-0.374;2023-04-24T06:13:00;11.30;;;6.40;;
48861;SDS011;34681;49.188;-0.374;2023-04-24T06:15:29;9.47;;;5.87;;
48861;SDS011;34681;49.188;-0.374;2023-04-24T06:17:56;9.83;;;6.00;;
48861;SDS011;34681;49.188;-0.374;2023-04-24T06:20:22;10.20;;;5.33;;
48861;SDS011;34681;49.188;-0.374;2023-04-24T06:22:47;6.60;;;5.53;;
48861;SDS011;34681;49.188;-0.374;2023-04-24T06:25:12;5.40;;;4.90;;
48861;SDS011;34681;49.188;-0.374;2023-04-24T06:27:38;7.93;;;5.90;;
48861;SDS011;34681;49.188;-0.374;2023-04-24T06:30:03;9.03;;;5.50;;
48861;SDS011;34681;49.188;-0.374;2023-04-24T06:32:29;6.20;;;5.70;;
48861;SDS011;34681;49.188;-0.374;2023-04-24T06:34:55;7.93;;;5.87;;
48861;SDS011;34681;49.188;-0.374;2023-04-24T06:37:21;5.40;;;4.90;;
48861;SDS011;34681;49.188;-0.374;2023-04-24T06:39:46;6.80;;;5.40;;
48861;SDS011;34681;49.188;-0.374;2023-04-24T06:42:12;7.10;;;4.00;;
48861;SDS011;34681;49.188;-0.374;2023-04-24T06:44:37;8.10;;;4.30;;
48861;SDS011;34681;49.188;-0.374;2023-04-24T06:47:09;5.17;;;4.67;;
48861;SDS011;34681;49.188;-0.374;2023-04-24T06:49:38;6.63;;;4.43;;
48861;SDS011;34681;49.188;-0.374;2023-04-24T06:52:03;4.90;;;3.87;;
48861;SDS011;34681;49.188;-0.374;2023-04-24T06:54:29;7.00;;;4.90;;
48861;SDS011;34681;49.188;-0.374;2023-04-24T06:56:55;8.73;;;4.10;;
48861;SDS011;34681;49.188;-0.374;2023-04-24T06:59:22;4.33;;;3.93;;
48861;SDS011;34681;49.188;-0.374;2023-04-24T07:01:48;7.00;;;3.67;;
48861;SDS011;34681;49.188;-0.374;2023-04-24T07:04:13;6.80;;;3.93;;
48861;SDS011;34681;49.188;-0.374;2023-04-24T07:06:39;5.03;;;3.87;;
48861;SDS011;34681;49.188;-0.374;2023-04-24T07:09:05;3.50;;;3.20;;
48861;SDS011;34681;49.188;-0.374;2023-04-24T07:11:30;6.43;;;4.83;;
48861;SDS011;34681;49.188;-0.374;2023-04-24T07:13:56;3.30;;;3.03;;
48861;SDS011;34681;49.188;-0.374;2023-04-24T07:16:21;6.63;;;3.10;;
48861;SDS011;34681;49.188;-0.374;2023-04-24T07:18:47;5.20;;;3.60;;
48861;SDS011;34681;49.188;-0.374;2023-04-24T07:21:12;4.60;;;3.00;;
48861;SDS011;34681;49.188;-0.374;2023-04-24T07:23:38;3.83;;;3.47;;
48861;SDS011;34681;49.188;-0.374;2023-04-24T07:26:03;6.00;;;3.97;;
48861;SDS011;34681;49.188;-0.374;2023-04-24T07:28:29;4.30;;;3.13;;
48861;SDS011;34681;49.188;-0.374;2023-04-24T07:30:57;5.67;;;3.80;;
48861;SDS011;34681;49.188;-0.374;2023-04-24T07:33:23;3.63;;;3.23;;
48861;SDS011;34681;49.188;-0.374;2023-04-24T07:35:49;4.80;;;3.53;;
48861;SDS011;34681;49.188;-0.374;2023-04-24T07:38:14;5.70;;;4.13;;
48861;SDS011;34681;49.188;-0.374;2023-04-24T07:40:39;6.03;;;3.03;;
48861;SDS011;34681;49.188;-0.374;2023-04-24T07:43:05;4.10;;;3.20;;
48861;SDS011;34681;49.188;-0.374;2023-04-24T07:45:30;6.40;;;3.90;;
48861;SDS011;34681;49.188;-0.374;2023-04-24T07:47:56;5.27;;;4.10;;
48861;SDS011;34681;49.188;-0.374;2023-04-24T07:50:21;5.53;;;3.60;;
48861;SDS011;34681;49.188;-0.374;2023-04-24T07:52:47;3.47;;;3.20;;
48861;SDS011;34681;49.188;-0.374;2023-04-24T07:55:12;3.30;;;3.00;;
48861;SDS011;34681;49.188;-0.374;2023-04-24T07:57:38;3.93;;;3.20;;
48861;SDS011;34681;49.188;-0.374;2023-04-24T08:00:04;3.83;;;3.20;;
48861;SDS011;34681;49.188;-0.374;2023-04-24T08:02:30;5.83;;;3.50;;
48861;SDS011;34681;49.188;-0.374;2023-04-24T08:04:56;4.23;;;3.60;;
48861;SDS011;34681;49.188;-0.374;2023-04-24T08:07:21;4.23;;;3.50;;
48861;SDS011;34681;49.188;-0.374;2023-04-24T08:09:48;4.20;;;3.80;;
48861;SDS011;34681;49.188;-0.374;2023-04-24T08:12:13;3.73;;;3.27;;
48861;SDS011;34681;49.188;-0.374;2023-04-24T08:14:39;4.97;;;3.00;;
48861;SDS011;34681;49.188;-0.374;2023-04-24T08:17:04;5.40;;;2.60;;
48861;SDS011;34681;49.188;-0.374;2023-04-24T08:19:30;2.87;;;2.67;;
48861;SDS011;34681;49.188;-0.374;2023-04-24T08:21:55;3.03;;;2.73;;
48861;SDS011;34681;49.188;-0.374;2023-04-24T08:24:20;5.53;;;2.83;;
48861;SDS011;34681;49.188;-0.374;2023-04-24T08:26:47;5.70;;;3.10;;
48861;SDS011;34681;49.188;-0.374;2023-04-24T08:29:15;3.17;;;2.70;;
48861;SDS011;34681;49.188;-0.374;2023-04-24T08:31:40;4.43;;;2.83;;
48861;SDS011;34681;49.188;-0.374;2023-04-24T08:34:06;3.50;;;2.93;;
48861;SDS011;34681;49.188;-0.374;2023-04-24T08:36:31;5.37;;;2.97;;
48861;SDS011;34681;49.188;-0.374;2023-04-24T08:38:57;3.53;;;3.23;;
48861;SDS011;34681;49.188;-0.374;2023-04-24T08:41:22;2.90;;;2.70;;
48861;SDS011;34681;49.188;-0.374;2023-04-24T08:43:51;3.97;;;2.40;;
48861;SDS011;34681;49.188;-0.374;2023-04-24T08:46:16;2.73;;;2.47;;
48861;SDS011;34681;49.188;-0.374;2023-04-24T08:48:43;3.80;;;3.20;;
48861;SDS011;34681;49.188;-0.374;2023-04-24T08:51:10;3.97;;;2.87;;
48861;SDS011;34681;49.188;-0.374;2023-04-24T08:53:35;2.73;;;2.47;;
48861;SDS011;34681;49.188;-0.374;2023-04-24T08:56:01;3.00;;;2.60;;
48861;SDS011;34681;49.188;-0.374;2023-04-24T08:58:27;2.70;;;2.50;;
48861;SDS011;34681;49.188;-0.374;2023-04-24T09:00:57;3.87;;;2.47;;
48861;SDS011;34681;49.188;-0.374;2023-04-24T09:03:24;3.13;;;2.90;;
48861;SDS011;34681;49.188;-0.374;2023-04-24T09:05:53;2.90;;;2.60;;
48861;SDS011;34681;49.188;-0.374;2023-04-24T09:08:20;2.47;;;2.27;;
48861;SDS011;34681;49.188;-0.374;2023-04-24T09:10:49;2.80;;;2.60;;
48861;SDS011;34681;49.188;-0.374;2023-04-24T09:13:15;2.97;;;2.77;;
48861;SDS011;34681;49.188;-0.374;2023-04-24T09:15:40;2.93;;;2.00;;
48861;SDS011;34681;49.188;-0.374;2023-04-24T09:18:06;3.17;;;2.70;;
48861;SDS011;34681;49.188;-0.374;2023-04-24T09:20:32;4.90;;;2.80;;
48861;SDS011;34681;49.188;-0.374;2023-04-24T09:22:57;2.70;;;2.60;;
48861;SDS011;34681;49.188;-0.374;2023-04-24T09:25:25;2.90;;;2.60;;
48861;SDS011;34681;49.188;-0.374;2023-04-24T09:27:58;3.37;;;3.07;;
48861;SDS011;34681;49.188;-0.374;2023-04-24T09:30:26;3.10;;;2.90;;
48861;SDS011;34681;49.188;-0.374;2023-04-24T09:33:12;5.10;;;2.40;;
48861;SDS011;34681;49.188;-0.374;2023-04-24T09:35:50;2.67;;;2.57;;
48861;SDS011;34681;49.188;-0.374;2023-04-24T09:38:16;2.97;;;2.77;;
48861;SDS011;34681;49.188;-0.374;2023-04-24T09:40:42;2.90;;;2.60;;
48861;SDS011;34681;49.188;-0.374;2023-04-24T09:43:10;4.50;;;2.70;;
48861;SDS011;34681;49.188;-0.374;2023-04-24T09:45:37;3.10;;;2.33;;
48861;SDS011;34681;49.188;-0.374;2023-04-24T09:48:04;2.07;;;1.97;;
48861;SDS011;34681;49.188;-0.374;2023-04-24T09:50:31;3.53;;;3.10;;
48861;SDS011;34681;49.188;-0.374;2023-04-24T09:52:58;3.03;;;2.80;;
48861;SDS011;34681;49.188;-0.374;2023-04-24T09:55:26;2.50;;;2.40;;
48861;SDS011;34681;49.188;-0.374;2023-04-24T09:57:56;3.50;;;3.20;;
48861;SDS011;34681;49.188;-0.374;2023-04-24T10:00:32;3.10;;;2.90;;
48861;SDS011;34681;49.188;-0.374;2023-04-24T10:03:04;3.00;;;2.80;;
48861;SDS011;34681;49.188;-0.374;2023-04-24T10:05:37;2.40;;;2.30;;
48861;SDS011;34681;49.188;-0.374;2023-04-24T10:08:08;2.77;;;2.57;;
48861;SDS011;34681;49.188;-0.374;2023-04-24T10:10:39;2.67;;;2.47;;
48861;SDS011;34681;49.188;-0.374;2023-04-24T10:13:10;5.90;;;3.53;;
48861;SDS011;34681;49.188;-0.374;2023-04-24T10:15:36;2.80;;;2.50;;
48861;SDS011;34681;49.188;-0.374;2023-04-24T10:18:04;2.93;;;2.73;;
48861;SDS011;34681;49.188;-0.374;2023-04-24T10:20:31;2.70;;;2.40;;
48861;SDS011;34681;49.188;-0.374;2023-04-24T10:22:57;2.30;;;2.10;;
48861;SDS011;34681;49.188;-0.374;2023-04-24T10:25:24;3.60;;;3.30;;
48861;SDS011;34681;49.188;-0.374;2023-04-24T10:27:52;3.13;;;2.93;;
48861;SDS011;34681;49.188;-0.374;2023-04-24T10:30:22;4.17;;;3.20;;
48861;SDS011;34681;49.188;-0.374;2023-04-24T10:32:47;2.83;;;2.63;;
48861;SDS011;34681;49.188;-0.374;2023-04-24T10:35:13;2.47;;;2.13;;
48861;SDS011;34681;49.188;-0.374;2023-04-24T10:37:42;3.23;;;2.30;;
48861;SDS011;34681;49.188;-0.374;2023-04-24T10:40:11;2.83;;;2.50;;
48861;SDS011;34681;49.188;-0.374;2023-04-24T10:42:40;3.93;;;3.03;;
48861;SDS011;34681;49.188;-0.374;2023-04-24T10:45:15;3.47;;;3.27;;
48861;SDS011;34681;49.188;-0.374;2023-04-24T10:47:41;2.70;;;2.50;;
48861;SDS011;34681;49.188;-0.374;2023-04-24T10:50:08;2.17;;;2.07;;
48861;SDS011;34681;49.188;-0.374;2023-04-24T10:52:44;2.57;;;2.47;;
48861;SDS011;34681;49.188;-0.374;2023-04-24T10:55:15;2.77;;;2.57;;
48861;SDS011;34681;49.188;-0.374;2023-04-24T10:58:00;2.77;;;2.57;;
48861;SDS011;34681;49.188;-0.374;2023-04-24T11:00:27;2.67;;;2.43;;
48861;SDS011;34681;49.188;-0.374;2023-04-24T11:02:53;2.57;;;2.40;;
48861;SDS011;34681;49.188;-0.374;2023-04-24T11:05:19;2.40;;;2.30;;
48861;SDS011;34681;49.188;-0.374;2023-04-24T11:10:44;3.23;;;2.90;;
48861;SDS011;34681;49.188;-0.374;2023-04-24T11:13:13;3.10;;;2.33;;
48861;SDS011;34681;49.188;-0.374;2023-04-24T11:15:41;2.80;;;2.60;;
48861;SDS011;34681;49.188;-0.374;2023-04-24T11:18:07;3.60;;;2.90;;
48861;SDS011;34681;49.188;-0.374;2023-04-24T11:20:41;1.90;;;1.80;;
48861;SDS011;34681;49.188;-0.374;2023-04-24T11:23:07;2.40;;;2.30;;
48861;SDS011;34681;49.188;-0.374;2023-04-24T11:25:33;3.50;;;2.47;;
48861;SDS011;34681;49.188;-0.374;2023-04-24T11:28:04;2.80;;;2.60;;
48861;SDS011;34681;49.188;-0.374;2023-04-24T11:30:30;2.40;;;2.20;;
48861;SDS011;34681;49.188;-0.374;2023-04-24T11:33:01;2.57;;;2.30;;
48861;SDS011;34681;49.188;-0.374;2023-04-24T11:35:29;2.70;;;2.50;;
48861;SDS011;34681;49.188;-0.374;2023-04-24T11:38:02;3.30;;;2.80;;
48861;SDS011;34681;49.188;-0.374;2023-04-24T11:40:28;2.77;;;2.60;;
48861;SDS011;34681;49.188;-0.374;2023-04-24T11:42:53;2.43;;;2.23;;
48861;SDS011;34681;49.188;-0.374;2023-04-24T11:45:26;2.50;;;2.23;;
48861;SDS011;34681;49.188;-0.374;2023-04-24T11:47:52;2.73;;;2.53;;
48861;SDS011;34681;49.188;-0.374;2023-04-24T11:50:19;2.87;;;2.70;;
48861;SDS011;34681;49.188;-0.374;2023-04-24T11:52:47;3.10;;;2.90;;
48861;SDS011;34681;49.188;-0.374;2023-04-24T11:57:39;4.10;;;3.80;;
48861;SDS011;34681;49.188;-0.374;2023-04-24T12:00:04;3.73;;;3.33;;
48861;SDS011;34681;49.188;-0.374;2023-04-24T12:02:30;3.93;;;3.40;;
48861;SDS011;34681;49.188;-0.374;2023-04-24T12:04:56;3.80;;;3.60;;
48861;SDS011;34681;49.188;-0.374;2023-04-24T12:07:24;3.03;;;2.83;;
48861;SDS011;34681;49.188;-0.374;2023-04-24T12:09:55;2.80;;;2.70;;
48861;SDS011;34681;49.188;-0.374;2023-04-24T12:12:23;3.30;;;2.63;;
48861;SDS011;34681;49.188;-0.374;2023-04-24T12:14:53;2.00;;;1.90;;
48861;SDS011;34681;49.188;-0.374;2023-04-24T12:17:23;2.80;;;2.17;;
48861;SDS011;34681;49.188;-0.374;2023-04-24T12:19:59;2.30;;;2.10;;
48861;SDS011;34681;49.188;-0.374;2023-04-24T12:22:27;2.20;;;2.00;;
48861;SDS011;34681;49.188;-0.374;2023-04-24T12:27:22;2.07;;;1.97;;
48861;SDS011;34681;49.188;-0.374;2023-04-24T12:30:09;2.87;;;2.63;;
48861;SDS011;34681;49.188;-0.374;2023-04-24T12:32:40;2.60;;;2.50;;
48861;SDS011;34681;49.188;-0.374;2023-04-24T12:35:06;2.70;;;2.10;;
48861;SDS011;34681;49.188;-0.374;2023-04-24T12:37:32;1.97;;;1.87;;
48861;SDS011;34681;49.188;-0.374;2023-04-24T12:40:05;2.60;;;2.13;;
48861;SDS011;34681;49.188;-0.374;2023-04-24T12:42:33;2.50;;;2.30;;
48861;SDS011;34681;49.188;-0.374;2023-04-24T12:45:00;2.70;;;2.50;;
48861;SDS011;34681;49.188;-0.374;2023-04-24T12:47:27;2.70;;;2.50;;
48861;SDS011;34681;49.188;-0.374;2023-04-24T12:49:53;3.43;;;3.23;;
48861;SDS011;34681;49.188;-0.374;2023-04-24T12:52:20;2.53;;;2.33;;
48861;SDS011;34681;49.188;-0.374;2023-04-24T12:54:46;3.57;;;2.13;;
48861;SDS011;34681;49.188;-0.374;2023-04-24T12:57:12;2.33;;;2.23;;
48861;SDS011;34681;49.188;-0.374;2023-04-24T12:59:37;2.63;;;2.43;;
48861;SDS011;34681;49.188;-0.374;2023-04-24T13:02:04;3.40;;;2.40;;
48861;SDS011;34681;49.188;-0.374;2023-04-24T13:04:30;2.40;;;2.20;;
48861;SDS011;34681;49.188;-0.374;2023-04-24T13:06:55;2.60;;;2.50;;
48861;SDS011;34681;49.188;-0.374;2023-04-24T13:09:20;2.70;;;2.50;;
48861;SDS011;34681;49.188;-0.374;2023-04-24T13:11:46;3.47;;;2.90;;
48861;SDS011;34681;49.188;-0.374;2023-04-24T13:14:11;2.70;;;2.50;;
48861;SDS011;34681;49.188;-0.374;2023-04-24T13:16:36;3.20;;;2.90;;
48861;SDS011;34681;49.188;-0.374;2023-04-24T13:19:02;2.77;;;2.57;;
48861;SDS011;34681;49.188;-0.374;2023-04-24T13:21:27;3.73;;;3.53;;
48861;SDS011;34681;49.188;-0.374;2023-04-24T13:23:55;4.93;;;3.20;;
48861;SDS011;34681;49.188;-0.374;2023-04-24T13:26:21;4.07;;;3.77;;
48861;SDS011;34681;49.188;-0.374;2023-04-24T13:28:46;3.70;;;3.40;;
48861;SDS011;34681;49.188;-0.374;2023-04-24T13:31:11;3.10;;;2.90;;
48861;SDS011;34681;49.188;-0.374;2023-04-24T13:33:37;3.20;;;3.00;;
48861;SDS011;34681;49.188;-0.374;2023-04-24T13:36:02;3.70;;;3.40;;
48861;SDS011;34681;49.188;-0.374;2023-04-24T13:38:28;3.10;;;2.90;;
48861;SDS011;34681;49.188;-0.374;2023-04-24T13:40:53;4.60;;;3.60;;
48861;SDS011;34681;49.188;-0.374;2023-04-24T13:43:19;2.90;;;2.70;;
48861;SDS011;34681;49.188;-0.374;2023-04-24T13:45:45;2.03;;;1.83;;
48861;SDS011;34681;49.188;-0.374;2023-04-24T13:48:10;2.43;;;2.33;;
48861;SDS011;34681;49.188;-0.374;2023-04-24T13:50:36;2.33;;;2.13;;
48861;SDS011;34681;49.188;-0.374;2023-04-24T13:53:01;2.70;;;2.50;;
48861;SDS011;34681;49.188;-0.374;2023-04-24T13:55:27;2.37;;;2.17;;
48861;SDS011;34681;49.188;-0.374;2023-04-24T13:57:53;3.30;;;2.70;;
48861;SDS011;34681;49.188;-0.374;2023-04-24T14:00:20;2.97;;;2.77;;
48861;SDS011;34681;49.188;-0.374;2023-04-24T14:02:46;5.00;;;3.00;;
48861;SDS011;34681;49.188;-0.374;2023-04-24T14:05:12;4.00;;;2.90;;
48861;SDS011;34681;49.188;-0.374;2023-04-24T14:07:40;2.90;;;2.70;;
48861;SDS011;34681;49.188;-0.374;2023-04-24T14:10:05;2.90;;;2.70;;
48861;SDS011;34681;49.188;-0.374;2023-04-24T14:12:31;3.93;;;2.80;;
48861;SDS011;34681;49.188;-0.374;2023-04-24T14:14:56;2.97;;;2.77;;
48861;SDS011;34681;49.188;-0.374;2023-04-24T14:17:22;3.50;;;2.97;;
48861;SDS011;34681;49.188;-0.374;2023-04-24T14:19:47;4.07;;;2.80;;
48861;SDS011;34681;49.188;-0.374;2023-04-24T14:22:12;2.67;;;2.47;;
48861;SDS011;34681;49.188;-0.374;2023-04-24T14:24:38;4.13;;;3.27;;
48861;SDS011;34681;49.188;-0.374;2023-04-24T14:27:03;3.20;;;2.90;;
48861;SDS011;34681;49.188;-0.374;2023-04-24T14:29:28;2.97;;;2.63;;
48861;SDS011;34681;49.188;-0.374;2023-04-24T14:31:54;4.47;;;2.90;;
48861;SDS011;34681;49.188;-0.374;2023-04-24T14:34:19;3.87;;;3.40;;
48861;SDS011;34681;49.188;-0.374;2023-04-24T14:36:45;5.23;;;3.27;;